createdAt,value
2022-11-26T00:00:36.056Z,8.53
2022-11-26T00:01:36.046Z,8.52
2022-11-26T00:02:36.239Z,8.51
2022-11-26T00:03:36.082Z,8.51
2022-11-26T00:04:36.359Z,8.49
2022-11-26T00:05:36.053Z,8.51
2022-11-26T00:06:35.964Z,8.51
2022-11-26T00:07:36.027Z,8.51
2022-11-26T00:08:35.957Z,8.51
2022-11-26T00:09:35.943Z,8.53
2022-11-26T00:10:35.935Z,8.52
2022-11-26T00:11:35.921Z,8.55
2022-11-26T00:12:35.942Z,8.55
2022-11-26T00:13:35.912Z,8.56
2022-11-26T00:14:36.327Z,8.56
2022-11-26T00:15:35.878Z,8.56
2022-11-26T00:16:36.027Z,8.58
2022-11-26T00:17:35.871Z,8.56
2022-11-26T00:18:35.880Z,8.60
2022-11-26T00:19:35.832Z,8.63
2022-11-26T00:20:35.840Z,8.64
2022-11-26T00:21:35.815Z,8.66
2022-11-26T00:22:35.851Z,8.66
2022-11-26T00:23:35.826Z,8.67
2022-11-26T00:24:36.125Z,8.70
2022-11-26T00:25:35.769Z,8.66
2022-11-26T00:26:35.760Z,8.63
2022-11-26T00:27:35.784Z,8.63
2022-11-26T00:28:35.742Z,8.63
2022-11-26T00:29:35.747Z,8.60
2022-11-26T00:30:35.718Z,8.60
2022-11-26T00:31:35.831Z,8.56
2022-11-26T00:32:43.676Z,8.56
2022-11-26T00:33:35.677Z,8.56
2022-11-26T00:34:35.993Z,8.58
2022-11-26T00:35:35.654Z,8.60
2022-11-26T00:36:35.654Z,8.61
2022-11-26T00:37:35.682Z,8.60
2022-11-26T00:38:35.636Z,8.60
2022-11-26T00:39:35.625Z,8.58
2022-11-26T00:40:35.604Z,8.58
2022-11-26T00:41:35.591Z,8.61
2022-11-26T00:42:35.576Z,8.60
2022-11-26T00:43:35.610Z,8.61
2022-11-26T00:44:35.876Z,8.63
2022-11-26T00:45:35.634Z,8.61
2022-11-26T00:46:35.544Z,8.60
2022-11-26T00:47:35.530Z,8.60
2022-11-26T00:48:35.560Z,8.58
2022-11-26T00:49:35.528Z,8.56
2022-11-26T00:50:35.511Z,8.56
2022-11-26T00:51:35.506Z,8.58
2022-11-26T00:52:35.482Z,8.56
2022-11-26T00:53:35.469Z,8.58
2022-11-26T00:54:35.630Z,8.60
2022-11-26T00:55:35.467Z,8.58
2022-11-26T00:56:38.095Z,8.58
2022-11-26T00:57:35.428Z,8.56
2022-11-26T00:58:35.445Z,8.58
2022-11-26T00:59:35.406Z,8.56
2022-11-26T01:00:35.597Z,8.55
2022-11-26T01:01:35.412Z,8.52
2022-11-26T01:02:35.373Z,8.51
2022-11-26T01:03:35.372Z,8.51
2022-11-26T01:04:35.597Z,8.49
2022-11-26T01:05:35.340Z,8.49
2022-11-26T01:06:35.322Z,8.48
2022-11-26T01:07:35.355Z,8.48
2022-11-26T01:08:35.311Z,8.49
2022-11-26T01:09:35.292Z,8.48
2022-11-26T01:10:35.272Z,8.49
2022-11-26T01:11:35.272Z,8.46
2022-11-26T01:12:35.249Z,8.48
2022-11-26T01:13:35.255Z,8.46
2022-11-26T01:14:35.315Z,8.46
2022-11-26T01:15:35.231Z,8.46
2022-11-26T01:16:35.304Z,8.49
2022-11-26T01:17:35.209Z,8.49
2022-11-26T01:18:35.231Z,8.45
2022-11-26T01:19:35.182Z,8.45
2022-11-26T01:20:35.184Z,8.44
2022-11-26T01:21:35.167Z,8.41
2022-11-26T01:22:35.155Z,8.41
2022-11-26T01:23:35.140Z,8.42
2022-11-26T01:24:35.402Z,8.44
2022-11-26T01:25:35.165Z,8.45
2022-11-26T01:26:35.098Z,8.45
2022-11-26T01:27:35.098Z,8.46
2022-11-26T01:28:35.081Z,8.46
2022-11-26T01:29:35.071Z,8.46
2022-11-26T01:30:35.057Z,8.46
2022-11-26T01:31:35.168Z,8.45
2022-11-26T01:32:42.543Z,8.48
2022-11-26T01:33:35.023Z,8.49
2022-11-26T01:34:35.171Z,8.51
2022-11-26T01:35:35.000Z,8.52
2022-11-26T01:36:35.003Z,8.51
2022-11-26T01:37:34.979Z,8.51
2022-11-26T01:38:34.971Z,8.51
2022-11-26T01:39:34.955Z,8.51
2022-11-26T01:40:34.941Z,8.46
2022-11-26T01:41:34.959Z,8.45
2022-11-26T01:42:34.940Z,8.45
2022-11-26T01:43:34.914Z,8.45
2022-11-26T01:44:35.049Z,8.44
2022-11-26T01:45:34.949Z,8.45
2022-11-26T01:46:35.059Z,8.44
2022-11-26T01:47:34.874Z,8.42
2022-11-26T01:48:34.873Z,8.44
2022-11-26T01:49:34.850Z,8.42
2022-11-26T01:50:34.834Z,8.42
2022-11-26T01:51:34.842Z,8.42
2022-11-26T01:52:34.835Z,8.41
2022-11-26T01:53:34.810Z,8.42
2022-11-26T01:54:34.912Z,8.45
2022-11-26T01:55:34.832Z,8.45
2022-11-26T01:56:34.800Z,8.44
2022-11-26T01:57:34.762Z,8.45
2022-11-26T01:58:39.628Z,8.44
2022-11-26T01:59:34.748Z,8.45
2022-11-26T02:00:34.751Z,8.45
2022-11-26T02:01:34.866Z,8.46
2022-11-26T02:02:34.885Z,8.48
2022-11-26T02:03:34.732Z,8.49
2022-11-26T02:04:34.841Z,8.48
2022-11-26T02:05:34.683Z,8.49
2022-11-26T02:06:34.667Z,8.48
2022-11-26T02:07:34.718Z,8.49
2022-11-26T02:08:34.647Z,8.49
2022-11-26T02:09:34.660Z,8.51
2022-11-26T02:10:34.616Z,8.51
2022-11-26T02:11:34.663Z,8.49
2022-11-26T02:12:34.588Z,8.48
2022-11-26T02:13:34.597Z,8.46
2022-11-26T02:14:34.592Z,8.44
2022-11-26T02:15:34.744Z,8.44
2022-11-26T02:16:34.665Z,8.46
2022-11-26T02:17:34.589Z,8.48
2022-11-26T02:18:34.530Z,8.49
2022-11-26T02:19:34.512Z,8.51
2022-11-26T02:20:34.534Z,8.52
2022-11-26T02:21:34.528Z,8.55
2022-11-26T02:22:34.533Z,8.53
2022-11-26T02:23:34.473Z,8.51
2022-11-26T02:24:34.453Z,8.49
2022-11-26T02:25:34.447Z,8.49
2022-11-26T02:26:34.478Z,8.46
2022-11-26T02:27:34.450Z,8.42
2022-11-26T02:28:34.446Z,8.41
2022-11-26T02:29:34.441Z,8.41
2022-11-26T02:30:34.399Z,8.38
2022-11-26T02:31:34.580Z,8.41
2022-11-26T02:32:42.894Z,8.37
2022-11-26T02:33:34.366Z,8.37
2022-11-26T02:34:37.805Z,8.38
2022-11-26T02:35:34.620Z,8.38
2022-11-26T02:36:34.324Z,8.38
2022-11-26T02:37:34.370Z,8.37
2022-11-26T02:38:34.320Z,8.34
2022-11-26T02:39:34.313Z,8.31
2022-11-26T02:40:34.291Z,8.30
2022-11-26T02:41:34.300Z,8.28
2022-11-26T02:42:34.311Z,8.24
2022-11-26T02:43:34.242Z,8.24
2022-11-26T02:44:34.245Z,8.20
2022-11-26T02:45:34.304Z,8.19
2022-11-26T02:46:34.252Z,8.19
2022-11-26T02:47:34.255Z,8.19
2022-11-26T02:48:34.221Z,8.20
2022-11-26T02:49:34.224Z,8.23
2022-11-26T02:50:34.170Z,8.23
2022-11-26T02:51:35.085Z,8.19
2022-11-26T02:52:34.164Z,8.19
2022-11-26T02:53:34.259Z,8.19
2022-11-26T02:54:34.142Z,8.20
2022-11-26T02:55:34.126Z,8.19
2022-11-26T02:56:34.127Z,8.15
2022-11-26T02:57:34.093Z,8.09
2022-11-26T02:58:34.105Z,8.01
2022-11-26T02:59:34.067Z,8.00
2022-11-26T03:00:34.058Z,8.00
2022-11-26T03:01:34.105Z,7.98
2022-11-26T03:02:34.044Z,7.98
2022-11-26T03:03:34.145Z,8.03
2022-11-26T03:04:34.033Z,8.03
2022-11-26T03:05:34.016Z,8.05
2022-11-26T03:06:34.024Z,8.03
2022-11-26T03:07:34.051Z,7.98
2022-11-26T03:08:34.007Z,7.95
2022-11-26T03:09:33.958Z,7.95
2022-11-26T03:10:33.944Z,7.91
2022-11-26T03:11:33.965Z,7.91
2022-11-26T03:12:34.027Z,7.88
2022-11-26T03:13:33.949Z,7.87
2022-11-26T03:14:33.931Z,7.82
2022-11-26T03:15:33.928Z,7.83
2022-11-26T03:16:33.927Z,7.85
2022-11-26T03:17:33.872Z,7.85
2022-11-26T03:18:33.871Z,7.77
2022-11-26T03:19:33.888Z,7.73
2022-11-26T03:20:33.915Z,7.73
2022-11-26T03:21:33.897Z,7.75
2022-11-26T03:22:33.860Z,7.72
2022-11-26T03:23:33.808Z,7.75
2022-11-26T03:24:33.796Z,7.75
2022-11-26T03:25:33.830Z,7.75
2022-11-26T03:26:33.806Z,7.73
2022-11-26T03:27:33.793Z,7.72
2022-11-26T03:28:33.752Z,7.69
2022-11-26T03:29:33.860Z,7.67
2022-11-26T03:30:34.253Z,7.70
2022-11-26T03:31:33.796Z,7.67
2022-11-26T03:32:42.308Z,7.69
2022-11-26T03:33:33.723Z,7.70
2022-11-26T03:34:33.717Z,7.72
2022-11-26T03:35:33.714Z,7.70
2022-11-26T03:36:33.662Z,7.63
2022-11-26T03:37:33.678Z,7.66
2022-11-26T03:38:33.661Z,7.63
2022-11-26T03:39:33.643Z,7.61
2022-11-26T03:40:33.646Z,7.58
2022-11-26T03:41:33.625Z,7.60
2022-11-26T03:42:33.591Z,7.61
2022-11-26T03:43:33.592Z,7.66
2022-11-26T03:44:33.589Z,7.67
2022-11-26T03:45:33.610Z,7.70
2022-11-26T03:46:33.572Z,7.69
2022-11-26T03:47:33.564Z,7.69
2022-11-26T03:48:33.529Z,7.67
2022-11-26T03:49:33.634Z,7.67
2022-11-26T03:50:33.552Z,7.70
2022-11-26T03:51:33.512Z,7.67
2022-11-26T03:52:33.491Z,7.67
2022-11-26T03:53:33.472Z,7.67
2022-11-26T03:54:33.462Z,7.67
2022-11-26T03:55:33.471Z,7.67
2022-11-26T03:56:33.452Z,7.67
2022-11-26T03:57:33.429Z,7.63
2022-11-26T03:58:33.429Z,7.66
2022-11-26T03:59:33.406Z,7.66
2022-11-26T04:00:33.412Z,7.66
2022-11-26T04:01:33.417Z,7.66
2022-11-26T04:02:33.387Z,7.63
2022-11-26T04:03:33.395Z,7.56
2022-11-26T04:04:33.358Z,7.56
2022-11-26T04:05:33.335Z,7.53
2022-11-26T04:06:33.356Z,7.50
2022-11-26T04:07:33.348Z,7.53
2022-11-26T04:08:33.314Z,7.57
2022-11-26T04:09:33.296Z,7.57
2022-11-26T04:10:33.279Z,7.60
2022-11-26T04:11:33.334Z,7.63
2022-11-26T04:12:33.277Z,7.63
2022-11-26T04:13:33.255Z,7.67
2022-11-26T04:14:33.234Z,7.69
2022-11-26T04:15:33.225Z,7.73
2022-11-26T04:16:33.235Z,7.75
2022-11-26T04:17:33.210Z,7.76
2022-11-26T04:18:33.207Z,7.77
2022-11-26T04:19:33.196Z,7.75
2022-11-26T04:20:33.179Z,7.75
2022-11-26T04:21:33.156Z,7.77
2022-11-26T04:22:33.140Z,7.75
2022-11-26T04:23:33.147Z,7.76
2022-11-26T04:24:33.134Z,7.77
2022-11-26T04:25:33.109Z,7.77
2022-11-26T04:26:33.125Z,7.79
2022-11-26T04:27:33.110Z,7.80
2022-11-26T04:28:33.101Z,7.79
2022-11-26T04:29:33.061Z,7.77
2022-11-26T04:30:33.058Z,7.75
2022-11-26T04:31:33.098Z,7.75
2022-11-26T04:32:39.585Z,7.73
2022-11-26T04:33:33.032Z,7.72
2022-11-26T04:34:33.001Z,7.75
2022-11-26T04:35:32.992Z,7.72
2022-11-26T04:36:32.985Z,7.67
2022-11-26T04:37:32.967Z,7.63
2022-11-26T04:38:32.969Z,7.63
2022-11-26T04:39:32.952Z,7.63
2022-11-26T04:40:32.954Z,7.66
2022-11-26T04:41:32.952Z,7.63
2022-11-26T04:42:32.928Z,7.60
2022-11-26T04:43:32.969Z,7.66
2022-11-26T04:44:32.914Z,7.66
2022-11-26T04:45:32.992Z,7.66
2022-11-26T04:46:32.925Z,7.67
2022-11-26T04:47:32.867Z,7.69
2022-11-26T04:48:32.900Z,7.70
2022-11-26T04:49:32.845Z,7.63
2022-11-26T04:50:32.879Z,7.61
2022-11-26T04:51:32.889Z,7.63
2022-11-26T04:52:32.808Z,7.61
2022-11-26T04:53:32.802Z,7.63
2022-11-26T04:54:32.795Z,7.58
2022-11-26T04:55:32.807Z,7.57
2022-11-26T04:56:32.773Z,7.54
2022-11-26T04:57:32.752Z,7.53
2022-11-26T04:58:32.759Z,7.53
2022-11-26T04:59:32.753Z,7.53
2022-11-26T05:00:32.750Z,7.50
2022-11-26T05:01:32.776Z,7.50
2022-11-26T05:02:32.764Z,7.54
2022-11-26T05:03:32.690Z,7.51
2022-11-26T05:04:32.684Z,7.48
2022-11-26T05:05:32.685Z,7.47
2022-11-26T05:06:32.666Z,7.47
2022-11-26T05:07:32.736Z,7.48
2022-11-26T05:08:32.634Z,7.47
2022-11-26T05:09:32.629Z,7.50
2022-11-26T05:10:32.624Z,7.50
2022-11-26T05:11:32.617Z,7.51
2022-11-26T05:12:32.590Z,7.53
2022-11-26T05:13:32.602Z,7.53
2022-11-26T05:14:32.567Z,7.53
2022-11-26T05:15:32.559Z,7.53
2022-11-26T05:16:32.667Z,7.51
2022-11-26T05:17:32.558Z,7.54
2022-11-26T05:18:32.528Z,7.57
2022-11-26T05:19:32.535Z,7.56
2022-11-26T05:20:32.526Z,7.57
2022-11-26T05:21:32.507Z,7.51
2022-11-26T05:22:32.528Z,7.51
2022-11-26T05:23:32.465Z,7.50
2022-11-26T05:24:32.471Z,7.50
2022-11-26T05:25:32.458Z,7.50
2022-11-26T05:26:32.454Z,7.48
2022-11-26T05:27:32.454Z,7.47
2022-11-26T05:28:32.419Z,7.43
2022-11-26T05:29:32.393Z,7.36
2022-11-26T05:30:32.383Z,7.32
2022-11-26T05:31:32.486Z,7.32
2022-11-26T05:32:39.876Z,7.29
2022-11-26T05:33:32.371Z,7.31
2022-11-26T05:34:32.351Z,7.28
2022-11-26T05:35:32.338Z,7.28
2022-11-26T05:36:32.334Z,7.25
2022-11-26T05:37:32.321Z,7.25
2022-11-26T05:38:32.303Z,7.25
2022-11-26T05:39:32.297Z,7.28
2022-11-26T05:40:32.275Z,7.29
2022-11-26T05:41:32.282Z,7.33
2022-11-26T05:42:32.268Z,7.33
2022-11-26T05:43:32.251Z,7.36
2022-11-26T05:44:32.237Z,7.39
2022-11-26T05:45:32.252Z,7.40
2022-11-26T05:46:32.238Z,7.39
2022-11-26T05:47:32.205Z,7.38
2022-11-26T05:48:32.193Z,7.35
2022-11-26T05:49:32.180Z,7.35
2022-11-26T05:50:32.165Z,7.38
2022-11-26T05:51:32.183Z,7.35
2022-11-26T05:52:32.187Z,7.38
2022-11-26T05:53:32.152Z,7.38
2022-11-26T05:54:32.148Z,7.39
2022-11-26T05:55:32.120Z,7.42
2022-11-26T05:56:32.114Z,7.39
2022-11-26T05:57:32.114Z,7.36
2022-11-26T05:58:32.096Z,7.36
2022-11-26T05:59:32.090Z,7.35
2022-11-26T06:00:32.063Z,7.36
2022-11-26T06:01:32.070Z,7.35
2022-11-26T06:02:32.275Z,7.33
2022-11-26T06:03:32.105Z,7.35
2022-11-26T06:04:32.047Z,7.35
2022-11-26T06:05:32.022Z,7.36
2022-11-26T06:06:32.009Z,7.35
2022-11-26T06:07:32.066Z,7.38
2022-11-26T06:08:31.992Z,7.40
2022-11-26T06:09:31.974Z,7.42
2022-11-26T06:10:31.973Z,7.40
2022-11-26T06:11:31.977Z,7.40
2022-11-26T06:12:31.959Z,7.39
2022-11-26T06:13:31.923Z,7.38
2022-11-26T06:14:31.917Z,7.38
2022-11-26T06:15:31.914Z,7.40
2022-11-26T06:16:31.945Z,7.40
2022-11-26T06:17:31.895Z,7.39
2022-11-26T06:18:31.887Z,7.36
2022-11-26T06:19:31.856Z,7.36
2022-11-26T06:20:31.853Z,7.33
2022-11-26T06:21:31.843Z,7.32
2022-11-26T06:22:31.868Z,7.31
2022-11-26T06:23:31.822Z,7.29
2022-11-26T06:24:31.806Z,7.25
2022-11-26T06:25:31.804Z,7.28
2022-11-26T06:26:31.795Z,7.28
2022-11-26T06:27:31.816Z,7.31
2022-11-26T06:28:31.787Z,7.35
2022-11-26T06:29:31.770Z,7.35
2022-11-26T06:30:31.748Z,7.33
2022-11-26T06:31:31.784Z,7.32
2022-11-26T06:32:39.252Z,7.29
2022-11-26T06:33:31.713Z,7.28
2022-11-26T06:34:31.705Z,7.25
2022-11-26T06:35:31.700Z,7.28
2022-11-26T06:36:31.688Z,7.25
2022-11-26T06:37:31.662Z,7.20
2022-11-26T06:38:31.682Z,7.17
2022-11-26T06:39:31.650Z,7.13
2022-11-26T06:40:31.646Z,7.13
2022-11-26T06:41:31.628Z,7.14
2022-11-26T06:42:31.618Z,7.13
2022-11-26T06:43:31.894Z,7.13
2022-11-26T06:44:31.601Z,7.15
2022-11-26T06:45:31.647Z,7.15
2022-11-26T06:46:31.581Z,7.18
2022-11-26T06:47:31.565Z,7.20
2022-11-26T06:48:31.642Z,7.24
2022-11-26T06:49:31.556Z,7.23
2022-11-26T06:50:31.534Z,7.25
2022-11-26T06:51:31.521Z,7.31
2022-11-26T06:52:31.509Z,7.31
2022-11-26T06:53:31.500Z,7.28
2022-11-26T06:54:31.525Z,7.31
2022-11-26T06:55:31.485Z,7.29
2022-11-26T06:56:31.475Z,7.32
2022-11-26T06:57:31.458Z,7.33
2022-11-26T06:58:31.441Z,7.33
2022-11-26T06:59:31.441Z,7.33
2022-11-26T07:00:31.419Z,7.32
2022-11-26T07:01:31.474Z,7.29
2022-11-26T07:02:31.511Z,7.25
2022-11-26T07:03:33.528Z,7.23
2022-11-26T07:04:31.385Z,7.20
2022-11-26T07:05:31.363Z,7.17
2022-11-26T07:06:31.354Z,7.15
2022-11-26T07:07:31.377Z,7.15
2022-11-26T07:08:31.348Z,7.13
2022-11-26T07:09:31.370Z,7.11
2022-11-26T07:10:31.309Z,7.10
2022-11-26T07:11:31.313Z,7.07
2022-11-26T07:12:31.315Z,7.07
2022-11-26T07:13:31.303Z,7.03
2022-11-26T07:14:31.282Z,7.00
2022-11-26T07:15:31.283Z,7.00
2022-11-26T07:16:31.302Z,7.00
2022-11-26T07:17:31.251Z,7.02
2022-11-26T07:18:31.237Z,7.05
2022-11-26T07:19:31.216Z,7.06
2022-11-26T07:20:31.228Z,7.10
2022-11-26T07:21:31.317Z,7.10
2022-11-26T07:22:31.176Z,7.11
2022-11-26T07:23:31.183Z,7.13
2022-11-26T07:24:31.156Z,7.13
2022-11-26T07:25:31.144Z,7.11
2022-11-26T07:26:31.162Z,7.14
2022-11-26T07:27:31.160Z,7.17
2022-11-26T07:28:31.117Z,7.17
2022-11-26T07:29:31.107Z,7.15
2022-11-26T07:30:31.113Z,7.11
2022-11-26T07:31:31.113Z,7.11
2022-11-26T07:33:43.000Z,7.13
2022-11-26T07:34:43.965Z,7.13
2022-11-26T07:35:43.960Z,7.15
2022-11-26T07:36:43.958Z,7.17
2022-11-26T07:37:43.935Z,7.15
2022-11-26T07:38:43.947Z,7.15
2022-11-26T07:39:43.909Z,7.17
2022-11-26T07:40:43.911Z,7.13
2022-11-26T07:41:43.890Z,7.13
2022-11-26T07:42:43.916Z,7.14
2022-11-26T07:43:43.868Z,7.14
2022-11-26T07:44:43.862Z,7.17
2022-11-26T07:45:43.909Z,7.17
2022-11-26T07:46:43.935Z,7.18
2022-11-26T07:47:44.174Z,7.20
2022-11-26T07:48:43.850Z,7.23
2022-11-26T07:49:43.880Z,7.24
2022-11-26T07:50:43.807Z,7.24
2022-11-26T07:51:43.843Z,7.24
2022-11-26T07:52:43.823Z,7.23
2022-11-26T07:53:43.790Z,7.24
2022-11-26T07:54:43.763Z,7.24
2022-11-26T07:55:43.785Z,7.25
2022-11-26T07:56:43.733Z,7.29
2022-11-26T07:57:43.710Z,7.29
2022-11-26T07:58:43.716Z,7.29
2022-11-26T07:59:43.699Z,7.31
2022-11-26T08:00:43.712Z,7.32
2022-11-26T08:01:43.727Z,7.32
2022-11-26T08:02:43.726Z,7.31
2022-11-26T08:03:43.666Z,7.31
2022-11-26T08:04:43.639Z,7.31
2022-11-26T08:05:43.624Z,7.29
2022-11-26T08:06:43.620Z,7.33
2022-11-26T08:07:43.662Z,7.36
2022-11-26T08:08:43.593Z,7.39
2022-11-26T08:09:43.694Z,7.42
2022-11-26T08:10:43.603Z,7.45
2022-11-26T08:11:43.580Z,7.43
2022-11-26T08:12:43.619Z,7.47
2022-11-26T08:13:43.537Z,7.45
2022-11-26T08:14:43.546Z,7.43
2022-11-26T08:15:43.547Z,7.43
2022-11-26T08:16:43.640Z,7.39
2022-11-26T08:17:43.723Z,7.40
2022-11-26T08:18:43.471Z,7.40
2022-11-26T08:19:43.476Z,7.36
2022-11-26T08:20:43.454Z,7.33
2022-11-26T08:21:43.448Z,7.33
2022-11-26T08:22:43.476Z,7.33
2022-11-26T08:23:43.424Z,7.32
2022-11-26T08:24:43.407Z,7.33
2022-11-26T08:26:06.020Z,7.32
2022-11-26T08:26:44.502Z,7.32
2022-11-26T08:27:43.391Z,7.31
2022-11-26T08:28:43.423Z,7.32
2022-11-26T08:29:43.357Z,7.35
2022-11-26T08:30:43.356Z,7.36
2022-11-26T08:32:54.310Z,7.42
2022-11-26T08:33:55.291Z,7.43
2022-11-26T08:34:55.277Z,7.47
2022-11-26T08:36:06.580Z,7.47
2022-11-26T08:36:55.253Z,7.47
2022-11-26T08:37:55.224Z,7.45
2022-11-26T08:38:55.277Z,7.43
2022-11-26T08:39:55.988Z,7.45
2022-11-26T08:40:55.293Z,7.50
2022-11-26T08:41:55.437Z,7.51
2022-11-26T08:42:55.172Z,7.50
2022-11-26T08:44:10.633Z,7.48
2022-11-26T08:44:55.204Z,7.48
2022-11-26T08:45:55.182Z,7.50
2022-11-26T08:46:55.127Z,7.51
2022-11-26T08:47:55.119Z,7.54
2022-11-26T08:48:55.101Z,7.57
2022-11-26T08:49:55.133Z,7.60
2022-11-26T08:50:55.090Z,7.63
2022-11-26T08:51:55.098Z,7.63
2022-11-26T08:52:55.074Z,7.67
2022-11-26T08:53:55.059Z,7.70
2022-11-26T08:54:55.062Z,7.75
2022-11-26T08:56:00.367Z,7.76
2022-11-26T08:56:55.022Z,7.77
2022-11-26T08:57:55.027Z,7.76
2022-11-26T08:58:55.008Z,7.76
2022-11-26T08:59:54.987Z,7.73
2022-11-26T09:00:55.017Z,7.75
2022-11-26T09:01:55.264Z,7.75
2022-11-26T09:02:55.049Z,7.69
2022-11-26T09:03:55.851Z,7.69
2022-11-26T09:04:54.963Z,7.69
2022-11-26T09:05:54.940Z,7.70
2022-11-26T09:06:54.928Z,7.72
2022-11-26T09:07:54.964Z,7.73
2022-11-26T09:08:54.906Z,7.76
2022-11-26T09:09:54.906Z,7.80
2022-11-26T09:10:54.925Z,7.88
2022-11-26T09:11:54.924Z,7.91
2022-11-26T09:12:54.874Z,7.91
2022-11-26T09:13:54.841Z,7.93
2022-11-26T09:14:55.701Z,7.91
2022-11-26T09:15:54.818Z,7.93
2022-11-26T09:16:54.903Z,7.94
2022-11-26T09:17:54.792Z,7.94
2022-11-26T09:18:54.837Z,7.94
2022-11-26T09:19:54.781Z,7.95
2022-11-26T09:20:57.267Z,7.97
2022-11-26T09:21:54.746Z,7.95
2022-11-26T09:22:54.737Z,7.97
2022-11-26T09:23:54.716Z,8.00
2022-11-26T09:24:54.731Z,8.01
2022-11-26T09:25:54.698Z,8.09
2022-11-26T09:26:54.695Z,8.12
2022-11-26T09:27:54.737Z,8.20
2022-11-26T09:28:54.762Z,8.28
2022-11-26T09:29:54.761Z,8.34
2022-11-26T09:30:54.756Z,8.41
2022-11-26T09:32:22.782Z,8.37
2022-11-26T09:32:54.668Z,8.46
2022-11-26T09:33:54.620Z,8.48
2022-11-26T09:34:54.660Z,8.53
2022-11-26T09:35:54.595Z,8.58
2022-11-26T09:36:54.579Z,8.61
2022-11-26T09:37:54.587Z,8.64
2022-11-26T09:38:54.555Z,8.69
2022-11-26T09:39:54.581Z,8.71
2022-11-26T09:40:54.641Z,8.74
2022-11-26T09:41:54.534Z,8.81
2022-11-26T09:42:54.540Z,8.84
2022-11-26T09:43:54.526Z,8.87
2022-11-26T09:44:54.562Z,8.87
2022-11-26T09:45:54.575Z,8.89
2022-11-26T09:47:11.115Z,8.92
2022-11-26T09:47:54.511Z,8.95
2022-11-26T09:48:54.496Z,8.99
2022-11-26T09:49:54.441Z,9.06
2022-11-26T09:50:54.431Z,9.16
2022-11-26T09:51:54.408Z,9.21
2022-11-26T09:52:54.407Z,9.21
2022-11-26T09:53:54.392Z,9.21
2022-11-26T09:54:54.451Z,9.25
2022-11-26T09:55:54.400Z,9.26
2022-11-26T09:56:54.357Z,9.31
2022-11-26T09:57:54.344Z,9.34
2022-11-26T09:58:54.333Z,9.26
2022-11-26T09:59:54.350Z,9.23
2022-11-26T10:00:54.417Z,9.23
2022-11-26T10:01:54.410Z,9.25
2022-11-26T10:02:54.348Z,9.26
2022-11-26T10:03:54.294Z,9.26
2022-11-26T10:04:54.274Z,9.22
2022-11-26T10:05:54.354Z,9.21
2022-11-26T10:06:54.254Z,9.19
2022-11-26T10:07:54.303Z,9.21
2022-11-26T10:08:54.226Z,9.21
2022-11-26T10:09:54.235Z,9.21
2022-11-26T10:10:54.245Z,9.25
2022-11-26T10:11:54.247Z,9.28
2022-11-26T10:13:17.487Z,9.31
2022-11-26T10:13:54.174Z,9.36
2022-11-26T10:14:54.178Z,9.39
2022-11-26T10:15:54.165Z,9.43
2022-11-26T10:16:54.995Z,9.48
2022-11-26T10:17:54.128Z,9.51
2022-11-26T10:18:54.108Z,9.56
2022-11-26T10:19:54.150Z,9.62
2022-11-26T10:20:54.570Z,9.68
2022-11-26T10:21:59.108Z,9.77
2022-11-26T10:22:57.105Z,9.83
2022-11-26T10:23:54.103Z,9.89
2022-11-26T10:24:54.081Z,9.87
2022-11-26T10:25:54.079Z,9.92
2022-11-26T10:26:54.019Z,9.92
2022-11-26T10:27:54.017Z,9.95
2022-11-26T10:28:54.036Z,9.98
2022-11-26T10:29:53.998Z,10.02
2022-11-26T10:30:54.053Z,10.09
2022-11-26T10:32:02.563Z,10.12
2022-11-26T10:32:53.959Z,10.16
2022-11-26T10:33:53.949Z,10.16
2022-11-26T10:34:53.929Z,10.13
2022-11-26T10:35:53.947Z,10.13
2022-11-26T10:36:53.939Z,10.12
2022-11-26T10:37:53.921Z,10.15
2022-11-26T10:38:53.917Z,10.16
2022-11-26T10:39:59.142Z,10.19
2022-11-26T10:40:53.907Z,10.22
2022-11-26T10:41:53.913Z,10.22
2022-11-26T10:42:53.885Z,10.26
2022-11-26T10:43:53.847Z,10.30
2022-11-26T10:44:53.831Z,10.28
2022-11-26T10:45:53.940Z,10.26
2022-11-26T10:46:53.980Z,10.28
2022-11-26T10:47:53.791Z,10.30
2022-11-26T10:48:53.792Z,10.28
2022-11-26T10:49:53.784Z,10.33
2022-11-26T10:50:53.773Z,10.38
2022-11-26T10:51:53.765Z,10.40
2022-11-26T10:52:53.754Z,10.41
2022-11-26T10:53:53.761Z,10.46
2022-11-26T10:54:53.729Z,10.44
2022-11-26T10:55:53.711Z,10.48
2022-11-26T10:56:53.713Z,10.48
2022-11-26T10:57:53.684Z,10.48
2022-11-26T10:58:53.737Z,10.44
2022-11-26T10:59:53.687Z,10.48
2022-11-26T11:00:53.704Z,10.51
2022-11-26T11:01:56.231Z,10.49
2022-11-26T11:02:53.662Z,10.51
2022-11-26T11:04:09.349Z,10.51
2022-11-26T11:04:53.631Z,10.56
2022-11-26T11:05:53.590Z,10.56
2022-11-26T11:06:53.626Z,10.59
2022-11-26T11:07:53.680Z,10.63
2022-11-26T11:08:53.620Z,10.67
2022-11-26T11:09:53.577Z,10.67
2022-11-26T11:10:53.570Z,10.67
2022-11-26T11:11:53.540Z,10.69
2022-11-26T11:12:53.529Z,10.68
2022-11-26T11:13:53.574Z,10.60
2022-11-26T11:14:53.547Z,10.61
2022-11-26T11:15:53.610Z,10.59
2022-11-26T11:16:53.538Z,10.56
2022-11-26T11:17:53.461Z,10.53
2022-11-26T11:18:53.482Z,10.53
2022-11-26T11:19:53.449Z,10.51
2022-11-26T11:20:53.457Z,10.48
2022-11-26T11:21:53.465Z,10.51
2022-11-26T11:22:56.295Z,10.56
2022-11-26T11:24:08.145Z,10.59
2022-11-26T11:24:53.416Z,10.64
2022-11-26T11:25:53.411Z,10.67
2022-11-26T11:26:53.414Z,10.69
2022-11-26T11:27:53.362Z,10.69
2022-11-26T11:28:53.369Z,10.69
2022-11-26T11:29:53.364Z,10.72
2022-11-26T11:30:53.368Z,10.76
2022-11-26T11:32:00.887Z,10.74
2022-11-26T11:32:53.325Z,10.72
2022-11-26T11:33:53.303Z,10.74
2022-11-26T11:34:53.311Z,10.76
2022-11-26T11:35:53.270Z,10.78
2022-11-26T11:36:53.274Z,10.79
2022-11-26T11:37:53.261Z,10.82
2022-11-26T11:38:53.240Z,10.89
2022-11-26T11:39:53.246Z,10.90
2022-11-26T11:40:53.223Z,10.90
2022-11-26T11:41:53.225Z,10.93
2022-11-26T11:42:53.198Z,10.92
2022-11-26T11:43:53.216Z,10.96
2022-11-26T11:44:53.207Z,10.93
2022-11-26T11:45:53.625Z,10.89
2022-11-26T11:46:53.164Z,10.92
2022-11-26T11:47:53.152Z,10.94
2022-11-26T11:48:53.149Z,10.99
2022-11-26T11:49:53.136Z,11.04
2022-11-26T11:50:53.109Z,11.08
2022-11-26T11:51:53.108Z,11.12
2022-11-26T11:52:53.097Z,11.18
2022-11-26T11:53:53.085Z,11.25
2022-11-26T11:54:53.067Z,11.27
2022-11-26T11:55:55.858Z,11.32
2022-11-26T11:56:53.060Z,11.40
2022-11-26T11:57:53.050Z,11.43
2022-11-26T11:58:53.021Z,11.47
2022-11-26T11:59:53.102Z,11.48
2022-11-26T12:00:53.039Z,11.48
2022-11-26T12:01:53.179Z,11.50
2022-11-26T12:02:52.989Z,11.52
2022-11-26T12:03:53.048Z,11.59
2022-11-26T12:04:53.036Z,11.63
2022-11-26T12:05:52.947Z,11.65
2022-11-26T12:06:52.951Z,11.69
2022-11-26T12:07:52.992Z,11.75
2022-11-26T12:08:52.916Z,11.83
2022-11-26T12:09:52.934Z,11.86
2022-11-26T12:10:52.883Z,11.87
2022-11-26T12:11:52.910Z,11.87
2022-11-26T12:14:18.971Z,11.90
2022-11-26T12:14:23.872Z,11.90
2022-11-26T12:15:23.874Z,11.94
2022-11-26T12:16:23.882Z,11.94
2022-11-26T12:17:26.738Z,11.94
2022-11-26T12:18:23.805Z,11.88
2022-11-26T12:19:23.782Z,11.86
2022-11-26T12:20:23.766Z,11.86
2022-11-26T12:21:23.762Z,11.88
2022-11-26T12:22:23.765Z,11.88
2022-11-26T12:23:24.825Z,11.90
2022-11-26T12:24:24.469Z,11.94
2022-11-26T12:25:23.707Z,11.95
2022-11-26T12:26:23.712Z,11.99
2022-11-26T12:27:23.728Z,12.00
2022-11-26T12:28:23.700Z,11.91
2022-11-26T12:29:23.703Z,11.87
2022-11-26T12:30:23.704Z,11.86
2022-11-26T12:31:23.769Z,11.84
2022-11-26T12:32:31.135Z,11.80
2022-11-26T12:33:23.618Z,11.77
2022-11-26T12:34:23.617Z,11.68
2022-11-26T12:35:23.613Z,11.63
2022-11-26T12:36:23.573Z,11.60
2022-11-26T12:37:23.645Z,11.55
2022-11-26T12:38:23.568Z,11.52
2022-11-26T12:39:23.537Z,11.50
2022-11-26T12:40:23.553Z,11.45
2022-11-26T12:41:23.528Z,11.40
2022-11-26T12:42:23.505Z,11.37
2022-11-26T12:43:23.513Z,11.35
2022-11-26T12:44:23.486Z,11.33
2022-11-26T12:45:23.489Z,11.30
2022-11-26T12:46:23.577Z,11.29
2022-11-26T12:47:23.461Z,11.26
2022-11-26T12:48:23.467Z,11.26
2022-11-26T12:49:23.434Z,11.25
2022-11-26T12:50:23.443Z,11.23
2022-11-26T12:51:23.409Z,11.23
2022-11-26T12:52:23.414Z,11.23
2022-11-26T12:53:23.395Z,11.22
2022-11-26T12:54:23.393Z,11.23
2022-11-26T12:55:23.376Z,11.25
2022-11-26T12:56:23.353Z,11.25
2022-11-26T12:57:23.351Z,11.25
2022-11-26T12:58:23.370Z,11.27
2022-11-26T12:59:23.332Z,11.26
2022-11-26T13:00:26.634Z,11.25
2022-11-26T13:01:23.380Z,11.26
2022-11-26T13:02:23.413Z,11.27
2022-11-26T13:03:23.307Z,11.30
2022-11-26T13:04:49.438Z,11.32
2022-11-26T13:05:23.271Z,11.30
2022-11-26T13:06:23.246Z,11.30
2022-11-26T13:07:23.314Z,11.32
2022-11-26T13:08:23.232Z,11.33
2022-11-26T13:09:23.240Z,11.33
2022-11-26T13:10:23.211Z,11.36
2022-11-26T13:11:23.282Z,11.40
2022-11-26T13:12:23.184Z,11.41
2022-11-26T13:13:23.176Z,11.33
2022-11-26T13:14:23.160Z,11.30
2022-11-26T13:15:23.167Z,11.30